createdAt,value
2022-07-29T00:03:43.259Z,56.95
2022-07-29T00:09:11.588Z,56.94
2022-07-29T00:14:56.364Z,57.15
2022-07-29T00:20:31.894Z,57.29
2022-07-29T00:26:08.852Z,57.51
2022-07-29T00:31:39.479Z,57.75
2022-07-29T00:37:22.085Z,57.92
2022-07-29T00:43:02.761Z,58.29
2022-07-29T00:48:39.802Z,58.29
2022-07-29T00:54:08.865Z,58.18
2022-07-29T00:59:45.496Z,57.95
2022-07-29T01:05:21.354Z,57.91
2022-07-29T01:10:50.440Z,57.76
2022-07-29T01:16:51.609Z,57.58
2022-07-29T01:22:54.296Z,57.76
2022-07-29T01:29:12.559Z,57.63
2022-07-29T01:34:54.584Z,57.45
2022-07-29T01:40:37.369Z,57.56
2022-07-29T01:46:22.297Z,57.57
2022-07-29T01:52:06.256Z,57.37
2022-07-29T01:57:40.753Z,57.33
2022-07-29T02:03:37.983Z,56.85
2022-07-29T02:09:11.621Z,56.58
2022-07-29T02:14:44.262Z,56.37
2022-07-29T02:20:14.816Z,55.31
2022-07-29T02:26:10.291Z,55.13
2022-07-29T02:31:43.380Z,54.90
2022-07-29T02:37:17.781Z,54.96
2022-07-29T02:42:50.805Z,54.74
2022-07-29T02:49:12.214Z,54.85
2022-07-29T02:55:28.930Z,54.79
2022-07-29T03:01:04.798Z,54.72
2022-07-29T03:07:23.247Z,54.42
2022-07-29T03:13:14.136Z,54.24
2022-07-29T03:18:54.455Z,54.15
2022-07-29T03:24:33.613Z,54.11
2022-07-29T03:29:56.362Z,53.97
2022-07-29T03:35:22.099Z,53.87
2022-07-29T03:41:02.419Z,53.78
2022-07-29T03:47:16.674Z,53.85
2022-07-29T03:53:01.351Z,53.90
2022-07-29T03:58:37.629Z,53.88
2022-07-29T04:04:14.494Z,53.98
2022-07-29T04:09:42.447Z,53.96
2022-07-29T04:15:32.026Z,53.92
2022-07-29T04:21:01.932Z,53.80
2022-07-29T04:26:42.919Z,54.01
2022-07-29T04:32:13.245Z,54.28
2022-07-29T04:37:35.849Z,54.48
2022-07-29T04:43:21.238Z,54.53
2022-07-29T04:48:50.926Z,54.71
2022-07-29T04:54:37.012Z,54.83
2022-07-29T05:00:13.085Z,55.06
2022-07-29T05:05:43.308Z,55.24
2022-07-29T05:11:21.299Z,55.33
2022-07-29T05:16:50.581Z,55.35
2022-07-29T05:22:15.073Z,55.31
2022-07-29T05:27:56.416Z,55.40
2022-07-29T05:33:35.835Z,55.42
2022-07-29T05:39:01.287Z,55.74
2022-07-29T05:44:40.929Z,55.94
2022-07-29T05:50:09.885Z,55.97
2022-07-29T05:55:35.394Z,55.88
2022-07-29T06:01:06.775Z,56.06
2022-07-29T06:06:35.468Z,55.53
2022-07-29T06:12:02.215Z,55.28
2022-07-29T06:17:35.302Z,55.24
2022-07-29T06:22:59.813Z,54.96
2022-07-29T06:28:39.144Z,54.58
2022-07-29T06:34:05.124Z,54.38
2022-07-29T06:39:42.774Z,54.10
2022-07-29T06:45:17.293Z,53.85
2022-07-29T06:50:40.917Z,53.56
2022-07-29T06:56:09.464Z,52.94
2022-07-29T07:01:34.561Z,52.85
2022-07-29T07:06:56.950Z,52.71
2022-07-29T07:12:22.209Z,52.78
2022-07-29T07:17:59.485Z,52.56
2022-07-29T07:23:21.596Z,52.18
2022-07-29T07:28:43.481Z,52.13
2022-07-29T07:34:16.493Z,52.15
2022-07-29T07:39:50.453Z,51.94
2022-07-29T07:45:16.456Z,51.69
2022-07-29T07:50:38.950Z,51.78
2022-07-29T07:56:21.181Z,52.06
2022-07-29T08:01:47.957Z,51.69
2022-07-29T08:07:21.283Z,51.65
2022-07-29T08:12:43.485Z,51.35
2022-07-29T08:18:08.732Z,50.96
2022-07-29T08:23:51.498Z,50.76
2022-07-29T08:29:37.972Z,50.47
2022-07-29T08:35:02.185Z,50.33
2022-07-29T08:40:30.766Z,50.01
2022-07-29T08:45:57.969Z,49.22
2022-07-29T08:51:24.394Z,48.91
2022-07-29T08:56:52.640Z,48.54
2022-07-29T09:02:30.784Z,48.42
2022-07-29T09:07:54.234Z,48.72
2022-07-29T09:13:16.542Z,48.58
2022-07-29T09:18:48.651Z,48.72
2022-07-29T09:24:14.286Z,48.45
2022-07-29T09:29:38.188Z,47.88
2022-07-29T09:35:24.324Z,47.70
2022-07-29T09:41:09.110Z,47.49
2022-07-29T09:46:33.971Z,47.12
2022-07-29T09:52:10.040Z,47.72
2022-07-29T09:57:34.642Z,47.58
2022-07-29T10:03:02.695Z,47.68
2022-07-29T10:08:38.785Z,47.26
2022-07-29T10:14:06.787Z,47.07
2022-07-29T10:19:32.193Z,47.06
2022-07-29T10:24:55.114Z,46.28
2022-07-29T10:30:22.228Z,46.48
2022-07-29T10:35:58.925Z,45.99
2022-07-29T10:42:01.828Z,45.45
2022-07-29T10:47:35.133Z,45.20
2022-07-29T10:53:00.647Z,44.76
2022-07-29T10:58:25.312Z,45.11
2022-07-29T11:03:53.645Z,44.80
2022-07-29T11:09:35.223Z,44.56
2022-07-29T11:15:03.439Z,44.17
2022-07-29T11:20:39.457Z,44.31
2022-07-29T11:26:26.466Z,44.44
2022-07-29T11:31:57.108Z,44.19
2022-07-29T11:37:28.042Z,44.24
2022-07-29T11:42:53.589Z,44.74
2022-07-29T11:48:29.098Z,44.06
2022-07-29T11:54:04.415Z,44.15
2022-07-29T11:59:49.244Z,44.29
2022-07-29T12:05:22.239Z,43.50
2022-07-29T12:11:01.483Z,43.83
2022-07-29T12:16:26.091Z,43.63
2022-07-29T12:22:12.502Z,44.16
2022-07-29T12:27:46.137Z,44.03
2022-07-29T12:33:22.369Z,44.54
2022-07-29T12:38:47.820Z,45.40
2022-07-29T12:44:10.740Z,46.04
2022-07-29T12:49:41.489Z,46.40
2022-07-29T12:55:04.827Z,46.51
2022-07-29T13:00:26.959Z,47.01
2022-07-29T13:05:51.686Z,46.90
2022-07-29T13:11:30.528Z,46.56
2022-07-29T13:17:10.189Z,46.67
2022-07-29T13:22:32.582Z,46.31
2022-07-29T13:27:59.915Z,46.20
2022-07-29T13:33:31.440Z,45.85
2022-07-29T13:39:52.822Z,45.98
2022-07-29T13:45:39.134Z,46.16
2022-07-29T13:51:02.405Z,45.76
2022-07-29T13:56:27.567Z,45.48
2022-07-29T14:01:49.584Z,44.81
2022-07-29T14:07:16.346Z,44.07
2022-07-29T14:12:39.379Z,44.12
2022-07-29T14:18:02.595Z,44.12
2022-07-29T14:23:24.399Z,43.87
2022-07-29T14:28:50.409Z,43.69
2022-07-29T14:34:12.861Z,44.03
2022-07-29T14:39:42.772Z,43.71
2022-07-29T14:45:09.382Z,43.72
2022-07-29T14:50:32.304Z,43.69
2022-07-29T14:55:54.359Z,43.70
2022-07-29T15:01:19.016Z,44.00
2022-07-29T15:06:40.835Z,44.17
2022-07-29T15:12:08.281Z,44.03
2022-07-29T15:17:33.559Z,44.01
2022-07-29T15:23:01.685Z,44.38
2022-07-29T15:28:24.501Z,44.78
2022-07-29T15:33:46.516Z,45.18
2022-07-29T15:39:08.652Z,45.60
2022-07-29T15:44:30.718Z,45.76
2022-07-29T15:49:55.456Z,45.99
2022-07-29T15:55:17.357Z,46.26
2022-07-29T16:00:39.542Z,46.47
2022-07-29T16:06:02.219Z,46.63
2022-07-29T16:11:24.055Z,46.78
2022-07-29T16:16:46.389Z,47.13
2022-07-29T16:22:08.869Z,47.35
2022-07-29T16:27:31.409Z,47.74
2022-07-29T16:33:00.228Z,48.50
2022-07-29T16:38:23.053Z,49.29
2022-07-29T16:43:45.763Z,50.03
2022-07-29T16:49:07.855Z,51.08
2022-07-29T16:54:29.869Z,51.69
2022-07-29T16:59:52.779Z,52.21
2022-07-29T17:05:16.088Z,52.29
2022-07-29T17:10:38.109Z,52.63
2022-07-29T17:16:00.776Z,52.88
2022-07-29T17:21:24.855Z,53.20
2022-07-29T17:26:50.356Z,53.38
2022-07-29T17:32:12.610Z,53.79
2022-07-29T17:37:37.932Z,54.37
2022-07-29T17:43:00.289Z,55.02
2022-07-29T17:48:23.177Z,55.56
2022-07-29T17:53:47.003Z,56.04
2022-07-29T17:59:10.366Z,56.94
2022-07-29T18:04:32.523Z,58.21
2022-07-29T18:10:00.057Z,60.03
2022-07-29T18:15:23.252Z,62.02
2022-07-29T18:20:48.791Z,63.86
2022-07-29T18:26:11.040Z,65.34
2022-07-29T18:31:33.760Z,66.21
2022-07-29T18:36:56.369Z,66.78
2022-07-29T18:42:18.516Z,67.71
2022-07-29T18:47:40.546Z,68.79
2022-07-29T18:53:05.038Z,69.61
2022-07-29T18:58:33.135Z,69.82
2022-07-29T19:03:54.893Z,70.03
2022-07-29T19:09:22.739Z,70.69
2022-07-29T19:14:44.870Z,70.61
2022-07-29T19:20:08.489Z,71.07
2022-07-29T19:25:31.424Z,71.20
2022-07-29T19:31:00.826Z,71.51
2022-07-29T19:36:27.852Z,71.57
2022-07-29T19:41:49.964Z,72.26
2022-07-29T19:47:19.301Z,72.69
2022-07-29T19:52:41.607Z,73.45
2022-07-29T19:58:06.915Z,74.55
2022-07-29T20:03:33.727Z,75.27
2022-07-29T20:08:58.768Z,75.68
2022-07-29T20:14:21.716Z,76.28
2022-07-29T20:19:43.984Z,76.97
2022-07-29T20:25:10.107Z,77.33
2022-07-29T20:30:34.333Z,77.25
2022-07-29T20:36:08.536Z,77.58
2022-07-29T20:41:30.370Z,78.06
2022-07-29T20:46:57.636Z,78.19
2022-07-29T20:52:20.088Z,78.17
2022-07-29T20:57:41.746Z,78.04
2022-07-29T21:03:04.410Z,78.13
2022-07-29T21:08:29.503Z,78.14
2022-07-29T21:13:54.324Z,78.45
2022-07-29T21:19:16.886Z,79.00
2022-07-29T21:24:42.188Z,79.32
2022-07-29T21:30:08.547Z,79.39
2022-07-29T21:36:06.356Z,79.44
2022-07-29T21:41:14.984Z,79.54
2022-07-29T21:46:45.273Z,79.66
2022-07-29T21:52:08.917Z,79.90
2022-07-29T21:57:32.057Z,80.14
2022-07-29T22:03:07.953Z,80.17
2022-07-29T22:08:30.180Z,80.10
2022-07-29T22:13:52.368Z,80.02
2022-07-29T22:19:15.500Z,79.82
2022-07-29T22:25:00.537Z,79.71
2022-07-29T22:30:30.339Z,79.91
2022-07-29T22:35:52.565Z,79.83
2022-07-29T22:41:14.848Z,79.68
2022-07-29T22:46:38.193Z,79.98
2022-07-29T22:52:00.523Z,80.08
2022-07-29T22:57:22.379Z,79.74
2022-07-29T23:02:44.581Z,79.74
2022-07-29T23:08:30.357Z,79.62
2022-07-29T23:14:29.947Z,79.54
2022-07-29T23:20:02.165Z,79.38
2022-07-29T23:25:44.328Z,79.26
2022-07-29T23:31:13.773Z,79.07
2022-07-29T23:36:38.883Z,78.90
2022-07-29T23:42:09.970Z,78.64
2022-07-29T23:47:32.644Z,78.46
2022-07-29T23:53:13.395Z,78.54
2022-07-29T23:58:40.300Z,78.29
